Poseyville, IN

2:09 AM CST on March 06, 2015 (GMT -0600)
SR 165 | Change Station
CLOSE
Current Station
Personal Weather Station
Location: Wadesville, IN
Elevation: 456 ft
Nearby Weather Stations
Active Advisory: Flood Warning Active Notice: Record Report, Local Storm Report

Elev 456 ft 38.11 °N, 87.79 °W | Updated 3 seconds ago

Partly Cloudy
Partly Cloudy
4.3 °F
Feels Like 4 °F
N
0.0
Wind Variable Wind from North
Gusts 0.0 mph

Today
High -- | Low -- °F
--% Chance of Precip.
Yesterday
High -- | Low -- °F
Precip. -- in
6:16 AM 5:49 PM
Full, 100% visible
Pressure 30.63 in
Visibility 7.0 miles
Clouds Clear
Windchill 4 °F
Dew Point -1 °F
Humidity 77%
Rainfall in
Snow Depth Not available.
UV 0 out of 12
Pollen .70 out of 12
Air Quality Not available.
Flu Activity Not available.
METAR KEVV 060754Z AUTO 00000KT 7SM CLR M15/M18 A3061 RMK AO2 SLP373 T11501178

More Conditions Fewer Conditions

Pressure 30.63 in
Visibility 7.0 miles
Clouds Clear
Windchill 4 °F
Dew Point -1 °F
Humidity 77%
Rainfall in
Snow Depth Not available.
UV 0 out of 12
Pollen .70 out of 12
Air Quality Not available.
Flu Activity Not available.
METAR KEVV 060754Z AUTO 00000KT 7SM CLR M15/M18 A3061 RMK AO2 SLP373 T11501178

More Conditions Fewer Conditions

10-Day Weather Forecast

Almanac

Astronomy

Mar. 06, 2015 Rise Set
Actual Time
Civil Twilight
Nautical Twilight
Astronomical Twilight
Moon
Length of Visible Light
Length of Day
Tomorrow will be .
, % of the Moon is Illuminated

Today's Extremes

State Highs State Lows

Community

WunderPhotos

Upload Photos

1,803,199 photos uploaded!

WunderBlogs® & News

Nearby

Air Quality

  Air Quality AQ Index Pollutant
Not available.

Snow Depth

Station Depth Elevation

Earthquake Activity

City Distance Mag. Time & Date
Minimum magnitude displayed is 2.5.

Coastal Water Temperatures

Place Temperature

Nearby Weather Stations

Flood Warning
Statement as of 9:36 PM CST on March 05, 2015

The Flood Warning continues for
the Ohio River at Mount Vernon
* from late Friday night until further notice.
* At 6:00 am Wednesday the stage was 25.6 feet.
* Flood stage is 35.0 feet.
* Minor flooding is forecast.
* Forecast... rise above flood stage by early Saturday morning and
continue to rise to near 41.8 feet by early Thursday morning.
* Impact... at 40.0 feet... farm land and some main roads are flooded in
places southwest and west of Mt. Vernon.


Lat... Lon 3792 8796 3780 8784 3781 8769 3796 8770
      3798 8784




936 PM CST Thu Mar 5 2015

The Flood Warning continues for
the Ohio River at j.T. Myers dam
* from Sunday morning until further notice.
* At 9:00 PM Thursday the stage was 30.4 feet.
* Flood stage is 37.0 feet.
* Minor flooding is forecast.
* Forecast... rise above flood stage by Sunday morning and continue to
rise to near 41.7 feet by Thursday morning. Additional rises are
possible thereafter.


Lat... Lon 3778 8811 3773 8800 3780 8784 3792 8796